sensor_id;sensor_type;location;lat;lon;timestamp;pressure;altitude;pressure_sealevel;temperature;humidity
54924;BME280;40825;52.270;20.984;2024-03-23T00:54:22;99710.45;;;8.33;100.00
54924;BME280;40825;52.270;20.984;2024-03-23T00:56:48;99705.40;;;8.31;100.00
54924;BME280;40825;52.270;20.984;2024-03-23T00:59:13;99706.92;;;8.29;100.00
54924;BME280;40825;52.270;20.984;2024-03-23T01:01:39;99704.19;;;8.27;100.00
54924;BME280;40825;52.270;20.984;2024-03-23T01:04:05;99701.63;;;8.24;100.00
54924;BME280;40825;52.270;20.984;2024-03-23T01:06:30;99696.95;;;8.22;100.00
54924;BME280;40825;52.270;20.984;2024-03-23T01:08:56;99691.96;;;8.18;100.00
54924;BME280;40825;52.270;20.984;2024-03-23T01:11:21;99700.32;;;8.14;100.00
54924;BME280;40825;52.270;20.984;2024-03-23T01:13:50;99697.27;;;8.10;100.00
54924;BME280;40825;52.270;20.984;2024-03-23T01:16:15;99696.10;;;8.06;100.00
54924;BME280;40825;52.270;20.984;2024-03-23T01:18:40;99693.32;;;8.04;100.00
54924;BME280;40825;52.270;20.984;2024-03-23T01:21:06;99692.14;;;8.02;100.00
54924;BME280;40825;52.270;20.984;2024-03-23T01:23:32;99685.73;;;8.01;100.00
54924;BME280;40825;52.270;20.984;2024-03-23T01:25:57;99683.54;;;8.01;100.00
54924;BME280;40825;52.270;20.984;2024-03-23T01:28:23;99683.08;;;8.00;100.00
54924;BME280;40825;52.270;20.984;2024-03-23T01:30:49;99683.15;;;7.99;100.00
54924;BME280;40825;52.270;20.984;2024-03-23T01:33:20;99684.66;;;7.98;100.00
54924;BME280;40825;52.270;20.984;2024-03-23T01:35:45;99681.42;;;7.97;100.00
54924;BME280;40825;52.270;20.984;2024-03-23T01:38:10;99688.20;;;7.97;100.00
54924;BME280;40825;52.270;20.984;2024-03-23T01:40:36;99690.93;;;7.96;100.00
54924;BME280;40825;52.270;20.984;2024-03-23T01:43:07;99686.95;;;7.95;100.00
54924;BME280;40825;52.270;20.984;2024-03-23T01:45:33;99683.56;;;7.95;100.00
54924;BME280;40825;52.270;20.984;2024-03-23T01:48:00;99680.30;;;7.96;100.00
54924;BME280;40825;52.270;20.984;2024-03-23T01:50:26;99677.60;;;7.96;100.00
54924;BME280;40825;52.270;20.984;2024-03-23T01:52:53;99663.24;;;7.96;100.00
54924;BME280;40825;52.270;20.984;2024-03-23T01:55:19;99654.75;;;7.96;100.00
54924;BME280;40825;52.270;20.984;2024-03-23T01:57:45;99661.41;;;7.97;100.00
54924;BME280;40825;52.270;20.984;2024-03-23T02:00:11;99676.60;;;7.97;100.00
54924;BME280;40825;52.270;20.984;2024-03-23T02:02:42;99674.48;;;7.99;100.00
54924;BME280;40825;52.270;20.984;2024-03-23T02:05:08;99672.15;;;8.01;100.00
54924;BME280;40825;52.270;20.984;2024-03-23T02:07:34;99665.75;;;8.02;100.00
54924;BME280;40825;52.270;20.984;2024-03-23T02:10:00;99657.64;;;8.02;100.00
54924;BME280;40825;52.270;20.984;2024-03-23T02:12:26;99658.02;;;8.02;100.00
54924;BME280;40825;52.270;20.984;2024-03-23T02:14:52;99659.57;;;8.02;100.00
54924;BME280;40825;52.270;20.984;2024-03-23T02:17:17;99649.80;;;8.03;100.00
54924;BME280;40825;52.270;20.984;2024-03-23T02:19:43;99655.33;;;8.02;100.00
54924;BME280;40825;52.270;20.984;2024-03-23T02:22:11;99657.41;;;8.04;100.00
54924;BME280;40825;52.270;20.984;2024-03-23T02:24:37;99653.20;;;8.03;100.00
54924;BME280;40825;52.270;20.984;2024-03-23T02:27:03;99649.52;;;8.03;100.00
54924;BME280;40825;52.270;20.984;2024-03-23T02:29:28;99647.32;;;8.04;100.00
54924;BME280;40825;52.270;20.984;2024-03-23T02:31:54;99643.80;;;8.04;100.00
54924;BME280;40825;52.270;20.984;2024-03-23T02:34:20;99644.21;;;8.05;100.00
54924;BME280;40825;52.270;20.984;2024-03-23T02:36:45;99645.08;;;8.05;100.00
54924;BME280;40825;52.270;20.984;2024-03-23T02:39:11;99643.40;;;8.05;100.00
54924;BME280;40825;52.270;20.984;2024-03-23T02:41:36;99641.02;;;8.06;100.00
54924;BME280;40825;52.270;20.984;2024-03-23T02:44:02;99640.96;;;8.06;100.00
54924;BME280;40825;52.270;20.984;2024-03-23T02:46:28;99639.70;;;8.08;100.00
54924;BME280;40825;52.270;20.984;2024-03-23T02:48:53;99637.63;;;8.08;100.00
54924;BME280;40825;52.270;20.984;2024-03-23T02:51:19;99634.02;;;8.07;100.00
54924;BME280;40825;52.270;20.984;2024-03-23T02:53:44;99630.38;;;8.08;100.00
54924;BME280;40825;52.270;20.984;2024-03-23T02:56:10;99625.71;;;8.08;100.00
54924;BME280;40825;52.270;20.984;2024-03-23T02:58:41;99619.25;;;8.07;100.00
54924;BME280;40825;52.270;20.984;2024-03-23T03:01:07;99619.09;;;8.08;100.00
54924;BME280;40825;52.270;20.984;2024-03-23T03:03:32;99618.36;;;8.08;100.00
54924;BME280;40825;52.270;20.984;2024-03-23T03:05:59;99620.02;;;8.09;100.00
54924;BME280;40825;52.270;20.984;2024-03-23T03:08:24;99612.77;;;8.11;100.00
54924;BME280;40825;52.270;20.984;2024-03-23T03:10:51;99609.30;;;8.11;100.00
54924;BME280;40825;52.270;20.984;2024-03-23T03:13:16;99604.48;;;8.12;100.00
54924;BME280;40825;52.270;20.984;2024-03-23T03:15:43;99605.14;;;8.12;100.00
54924;BME280;40825;52.270;20.984;2024-03-23T03:18:09;99602.71;;;8.12;100.00
54924;BME280;40825;52.270;20.984;2024-03-23T03:20:39;99601.77;;;8.12;100.00
54924;BME280;40825;52.270;20.984;2024-03-23T03:23:05;99605.13;;;8.12;100.00
54924;BME280;40825;52.270;20.984;2024-03-23T03:25:31;99605.44;;;8.14;100.00
54924;BME280;40825;52.270;20.984;2024-03-23T03:27:56;99605.85;;;8.15;100.00
54924;BME280;40825;52.270;20.984;2024-03-23T03:30:22;99606.20;;;8.17;100.00
54924;BME280;40825;52.270;20.984;2024-03-23T03:32:49;99612.90;;;8.18;100.00
54924;BME280;40825;52.270;20.984;2024-03-23T03:35:14;99612.45;;;8.19;100.00
54924;BME280;40825;52.270;20.984;2024-03-23T03:37:40;99615.69;;;8.20;100.00
54924;BME280;40825;52.270;20.984;2024-03-23T03:40:06;99611.48;;;8.21;100.00
54924;BME280;40825;52.270;20.984;2024-03-23T03:42:34;99615.25;;;8.22;100.00
54924;BME280;40825;52.270;20.984;2024-03-23T03:45:00;99618.49;;;8.23;100.00
54924;BME280;40825;52.270;20.984;2024-03-23T03:47:25;99615.14;;;8.23;100.00
54924;BME280;40825;52.270;20.984;2024-03-23T03:49:51;99614.05;;;8.25;100.00
54924;BME280;40825;52.270;20.984;2024-03-23T03:52:16;99609.06;;;8.25;100.00
54924;BME280;40825;52.270;20.984;2024-03-23T03:54:42;99609.27;;;8.26;100.00
54924;BME280;40825;52.270;20.984;2024-03-23T03:57:07;99606.58;;;8.26;100.00
54924;BME280;40825;52.270;20.984;2024-03-23T03:59:33;99600.40;;;8.28;100.00
54924;BME280;40825;52.270;20.984;2024-03-23T04:01:58;99602.98;;;8.26;100.00
54924;BME280;40825;52.270;20.984;2024-03-23T04:04:24;99602.20;;;8.27;100.00
54924;BME280;40825;52.270;20.984;2024-03-23T04:06:50;99595.09;;;8.29;100.00
54924;BME280;40825;52.270;20.984;2024-03-23T04:09:16;99595.24;;;8.29;100.00
54924;BME280;40825;52.270;20.984;2024-03-23T04:11:42;99591.48;;;8.29;100.00
54924;BME280;40825;52.270;20.984;2024-03-23T04:14:07;99589.65;;;8.30;100.00
54924;BME280;40825;52.270;20.984;2024-03-23T04:16:34;99591.30;;;8.29;100.00
54924;BME280;40825;52.270;20.984;2024-03-23T04:19:01;99588.13;;;8.29;100.00
54924;BME280;40825;52.270;20.984;2024-03-23T04:21:26;99582.08;;;8.30;100.00
54924;BME280;40825;52.270;20.984;2024-03-23T04:23:52;99579.09;;;8.29;100.00
54924;BME280;40825;52.270;20.984;2024-03-23T04:26:17;99576.67;;;8.29;100.00
54924;BME280;40825;52.270;20.984;2024-03-23T04:28:43;99570.63;;;8.29;100.00
54924;BME280;40825;52.270;20.984;2024-03-23T04:31:09;99568.20;;;8.30;100.00
54924;BME280;40825;52.270;20.984;2024-03-23T04:33:35;99564.08;;;8.30;100.00
54924;BME280;40825;52.270;20.984;2024-03-23T04:36:01;99558.98;;;8.31;100.00
54924;BME280;40825;52.270;20.984;2024-03-23T04:38:28;99555.99;;;8.31;100.00
54924;BME280;40825;52.270;20.984;2024-03-23T04:40:58;99556.85;;;8.31;100.00
54924;BME280;40825;52.270;20.984;2024-03-23T04:43:25;99561.85;;;8.32;100.00
54924;BME280;40825;52.270;20.984;2024-03-23T04:45:52;99567.41;;;8.33;100.00
54924;BME280;40825;52.270;20.984;2024-03-23T04:48:21;99559.08;;;8.33;100.00
54924;BME280;40825;52.270;20.984;2024-03-23T04:50:54;99555.75;;;8.33;100.00
54924;BME280;40825;52.270;20.984;2024-03-23T04:53:21;99558.86;;;8.34;100.00
54924;BME280;40825;52.270;20.984;2024-03-23T04:55:46;99553.27;;;8.34;100.00
54924;BME280;40825;52.270;20.984;2024-03-23T04:58:12;99546.23;;;8.34;100.00
54924;BME280;40825;52.270;20.984;2024-03-23T05:00:38;99537.80;;;8.35;100.00
54924;BME280;40825;52.270;20.984;2024-03-23T05:03:04;99530.72;;;8.36;100.00
54924;BME280;40825;52.270;20.984;2024-03-23T05:05:29;99529.95;;;8.36;100.00
54924;BME280;40825;52.270;20.984;2024-03-23T05:07:55;99535.45;;;8.38;100.00
54924;BME280;40825;52.270;20.984;2024-03-23T05:10:21;99532.30;;;8.39;100.00
54924;BME280;40825;52.270;20.984;2024-03-23T05:12:47;99535.16;;;8.40;100.00
54924;BME280;40825;52.270;20.984;2024-03-23T05:15:12;99540.12;;;8.40;100.00
54924;BME280;40825;52.270;20.984;2024-03-23T05:17:38;99540.40;;;8.39;100.00
54924;BME280;40825;52.270;20.984;2024-03-23T05:20:05;99547.85;;;8.39;100.00
54924;BME280;40825;52.270;20.984;2024-03-23T05:22:37;99550.96;;;8.40;100.00
54924;BME280;40825;52.270;20.984;2024-03-23T05:25:02;99546.88;;;8.40;100.00
54924;BME280;40825;52.270;20.984;2024-03-23T05:27:31;99542.73;;;8.40;100.00
54924;BME280;40825;52.270;20.984;2024-03-23T05:29:57;99538.07;;;8.41;100.00
54924;BME280;40825;52.270;20.984;2024-03-23T05:32:23;99535.33;;;8.42;100.00
54924;BME280;40825;52.270;20.984;2024-03-23T05:34:48;99533.66;;;8.42;100.00
54924;BME280;40825;52.270;20.984;2024-03-23T05:37:15;99532.35;;;8.41;100.00
54924;BME280;40825;52.270;20.984;2024-03-23T05:39:41;99528.70;;;8.42;100.00
54924;BME280;40825;52.270;20.984;2024-03-23T05:42:06;99530.80;;;8.42;100.00
54924;BME280;40825;52.270;20.984;2024-03-23T05:44:34;99528.46;;;8.43;100.00
54924;BME280;40825;52.270;20.984;2024-03-23T05:47:00;99524.86;;;8.43;100.00
54924;BME280;40825;52.270;20.984;2024-03-23T05:49:25;99527.27;;;8.43;100.00
54924;BME280;40825;52.270;20.984;2024-03-23T05:51:51;99521.67;;;8.43;100.00
54924;BME280;40825;52.270;20.984;2024-03-23T05:54:16;99518.02;;;8.44;100.00
54924;BME280;40825;52.270;20.984;2024-03-23T05:56:42;99516.56;;;8.44;100.00
54924;BME280;40825;52.270;20.984;2024-03-23T05:59:08;99516.71;;;8.43;100.00
54924;BME280;40825;52.270;20.984;2024-03-23T06:01:34;99518.59;;;8.42;100.00
54924;BME280;40825;52.270;20.984;2024-03-23T06:04:00;99514.10;;;8.41;100.00
54924;BME280;40825;52.270;20.984;2024-03-23T06:06:27;99514.19;;;8.42;100.00
54924;BME280;40825;52.270;20.984;2024-03-23T06:08:55;99506.32;;;8.41;100.00
54924;BME280;40825;52.270;20.984;2024-03-23T06:11:21;99507.63;;;8.42;100.00
54924;BME280;40825;52.270;20.984;2024-03-23T06:13:46;99509.02;;;8.43;100.00
54924;BME280;40825;52.270;20.984;2024-03-23T06:16:12;99507.30;;;8.44;100.00
54924;BME280;40825;52.270;20.984;2024-03-23T06:18:39;99511.42;;;8.47;100.00
54924;BME280;40825;52.270;20.984;2024-03-23T06:21:05;99517.64;;;8.49;100.00
54924;BME280;40825;52.270;20.984;2024-03-23T06:23:30;99515.97;;;8.50;100.00
54924;BME280;40825;52.270;20.984;2024-03-23T06:25:56;99505.20;;;8.49;100.00
54924;BME280;40825;52.270;20.984;2024-03-23T06:28:22;99507.20;;;8.51;100.00
54924;BME280;40825;52.270;20.984;2024-03-23T06:30:47;99503.60;;;8.52;100.00
54924;BME280;40825;52.270;20.984;2024-03-23T06:33:13;99500.42;;;8.56;100.00
54924;BME280;40825;52.270;20.984;2024-03-23T06:35:39;99500.95;;;8.57;100.00
54924;BME280;40825;52.270;20.984;2024-03-23T06:38:05;99500.06;;;8.58;100.00
54924;BME280;40825;52.270;20.984;2024-03-23T06:40:31;99498.67;;;8.60;100.00
54924;BME280;40825;52.270;20.984;2024-03-23T06:43:00;99496.80;;;8.59;100.00
54924;BME280;40825;52.270;20.984;2024-03-23T06:45:26;99497.05;;;8.61;100.00
54924;BME280;40825;52.270;20.984;2024-03-23T06:47:51;99497.02;;;8.63;100.00
54924;BME280;40825;52.270;20.984;2024-03-23T06:50:17;99490.55;;;8.63;100.00
54924;BME280;40825;52.270;20.984;2024-03-23T06:52:43;99487.56;;;8.63;100.00
54924;BME280;40825;52.270;20.984;2024-03-23T06:55:08;99477.29;;;8.64;100.00
54924;BME280;40825;52.270;20.984;2024-03-23T06:57:34;99466.08;;;8.66;100.00
54924;BME280;40825;52.270;20.984;2024-03-23T06:59:59;99469.77;;;8.69;100.00
54924;BME280;40825;52.270;20.984;2024-03-23T07:02:25;99469.99;;;8.70;100.00
54924;BME280;40825;52.270;20.984;2024-03-23T07:04:50;99470.63;;;8.73;100.00
54924;BME280;40825;52.270;20.984;2024-03-23T07:07:16;99472.14;;;8.74;100.00
54924;BME280;40825;52.270;20.984;2024-03-23T07:09:41;99468.76;;;8.74;100.00
54924;BME280;40825;52.270;20.984;2024-03-23T07:12:07;99466.95;;;8.74;100.00
54924;BME280;40825;52.270;20.984;2024-03-23T07:14:32;99469.48;;;8.72;100.00
54924;BME280;40825;52.270;20.984;2024-03-23T07:16:58;99466.98;;;8.73;100.00
54924;BME280;40825;52.270;20.984;2024-03-23T07:19:23;99462.73;;;8.74;100.00
54924;BME280;40825;52.270;20.984;2024-03-23T07:21:49;99461.30;;;8.74;100.00
54924;BME280;40825;52.270;20.984;2024-03-23T07:24:15;99463.55;;;8.72;100.00
54924;BME280;40825;52.270;20.984;2024-03-23T07:26:41;99462.64;;;8.70;100.00
54924;BME280;40825;52.270;20.984;2024-03-23T07:29:06;99458.95;;;8.70;100.00
54924;BME280;40825;52.270;20.984;2024-03-23T07:31:32;99456.91;;;8.70;100.00
54924;BME280;40825;52.270;20.984;2024-03-23T07:33:59;99454.16;;;8.68;100.00
54924;BME280;40825;52.270;20.984;2024-03-23T07:36:24;99458.67;;;8.67;100.00
54924;BME280;40825;52.270;20.984;2024-03-23T07:38:51;99454.45;;;8.65;100.00
54924;BME280;40825;52.270;20.984;2024-03-23T07:41:18;99453.02;;;8.64;100.00
54924;BME280;40825;52.270;20.984;2024-03-23T07:43:44;99451.99;;;8.64;100.00
54924;BME280;40825;52.270;20.984;2024-03-23T07:46:10;99450.11;;;8.63;100.00
54924;BME280;40825;52.270;20.984;2024-03-23T07:48:37;99449.95;;;8.63;100.00
54924;BME280;40825;52.270;20.984;2024-03-23T07:53:33;99434.17;;;8.62;100.00
54924;BME280;40825;52.270;20.984;2024-03-23T07:56:01;99430.81;;;8.62;100.00
54924;BME280;40825;52.270;20.984;2024-03-23T07:58:27;99427.27;;;8.60;100.00
54924;BME280;40825;52.270;20.984;2024-03-23T08:00:54;99422.14;;;8.60;100.00
54924;BME280;40825;52.270;20.984;2024-03-23T08:03:20;99415.27;;;8.62;100.00
54924;BME280;40825;52.270;20.984;2024-03-23T08:05:46;99409.34;;;8.69;100.00
54924;BME280;40825;52.270;20.984;2024-03-23T08:08:13;99408.16;;;8.75;100.00
54924;BME280;40825;52.270;20.984;2024-03-23T08:10:52;99408.83;;;8.82;100.00
54924;BME280;40825;52.270;20.984;2024-03-23T08:13:19;99403.43;;;8.91;100.00
54924;BME280;40825;52.270;20.984;2024-03-23T08:15:45;99400.39;;;8.98;100.00
54924;BME280;40825;52.270;20.984;2024-03-23T08:18:12;99400.77;;;8.97;100.00
54924;BME280;40825;52.270;20.984;2024-03-23T08:20:38;99397.90;;;8.96;100.00
54924;BME280;40825;52.270;20.984;2024-03-23T08:23:05;99395.47;;;8.97;100.00
54924;BME280;40825;52.270;20.984;2024-03-23T08:25:31;99398.09;;;9.00;100.00
54924;BME280;40825;52.270;20.984;2024-03-23T08:27:57;99389.73;;;8.99;100.00
54924;BME280;40825;52.270;20.984;2024-03-23T08:30:23;99390.52;;;8.97;100.00
54924;BME280;40825;52.270;20.984;2024-03-23T08:32:48;99381.25;;;8.99;100.00
54924;BME280;40825;52.270;20.984;2024-03-23T08:35:14;99380.37;;;9.03;100.00
54924;BME280;40825;52.270;20.984;2024-03-23T08:37:40;99375.73;;;9.08;100.00
54924;BME280;40825;52.270;20.984;2024-03-23T08:40:06;99363.92;;;9.16;100.00
54924;BME280;40825;52.270;20.984;2024-03-23T08:42:34;99356.27;;;9.26;100.00
54924;BME280;40825;52.270;20.984;2024-03-23T08:45:00;99346.63;;;9.40;100.00
54924;BME280;40825;52.270;20.984;2024-03-23T08:47:26;99347.92;;;9.65;100.00
54924;BME280;40825;52.270;20.984;2024-03-23T08:49:52;99346.06;;;10.11;100.00
54924;BME280;40825;52.270;20.984;2024-03-23T08:52:18;99344.25;;;10.41;100.00
54924;BME280;40825;52.270;20.984;2024-03-23T08:54:43;99340.09;;;10.57;100.00
54924;BME280;40825;52.270;20.984;2024-03-23T08:57:09;99334.46;;;10.78;100.00
54924;BME280;40825;52.270;20.984;2024-03-23T08:59:35;99333.72;;;10.87;100.00
54924;BME280;40825;52.270;20.984;2024-03-23T09:02:00;99325.42;;;10.88;100.00
54924;BME280;40825;52.270;20.984;2024-03-23T09:04:26;99323.19;;;10.99;100.00
54924;BME280;40825;52.270;20.984;2024-03-23T09:06:52;99320.50;;;11.04;100.00
54924;BME280;40825;52.270;20.984;2024-03-23T09:09:17;99314.55;;;11.04;100.00
54924;BME280;40825;52.270;20.984;2024-03-23T09:11:45;99309.46;;;11.15;100.00
54924;BME280;40825;52.270;20.984;2024-03-23T09:14:10;99307.73;;;11.35;100.00
54924;BME280;40825;52.270;20.984;2024-03-23T09:16:36;99303.67;;;11.48;100.00
54924;BME280;40825;52.270;20.984;2024-03-23T09:19:02;99296.97;;;11.61;100.00
54924;BME280;40825;52.270;20.984;2024-03-23T09:21:28;99289.93;;;11.64;100.00
54924;BME280;40825;52.270;20.984;2024-03-23T09:23:54;99286.88;;;11.58;100.00
54924;BME280;40825;52.270;20.984;2024-03-23T09:26:19;99281.66;;;11.54;100.00
54924;BME280;40825;52.270;20.984;2024-03-23T09:28:48;99277.10;;;11.48;100.00
54924;BME280;40825;52.270;20.984;2024-03-23T09:31:14;99273.35;;;11.49;100.00
54924;BME280;40825;52.270;20.984;2024-03-23T09:33:40;99267.55;;;11.52;100.00
54924;BME280;40825;52.270;20.984;2024-03-23T09:36:07;99267.90;;;11.47;100.00
54924;BME280;40825;52.270;20.984;2024-03-23T09:38:33;99262.86;;;11.39;100.00
54924;BME280;40825;52.270;20.984;2024-03-23T09:40:59;99259.73;;;11.46;100.00
54924;BME280;40825;52.270;20.984;2024-03-23T09:43:25;99259.59;;;11.73;100.00
54924;BME280;40825;52.270;20.984;2024-03-23T09:45:53;99256.66;;;11.86;100.00
54924;BME280;40825;52.270;20.984;2024-03-23T09:48:18;99255.27;;;11.90;100.00
54924;BME280;40825;52.270;20.984;2024-03-23T09:50:45;99248.48;;;11.91;100.00
54924;BME280;40825;52.270;20.984;2024-03-23T09:53:12;99241.88;;;11.95;100.00
54924;BME280;40825;52.270;20.984;2024-03-23T09:55:43;99238.55;;;12.12;100.00
54924;BME280;40825;52.270;20.984;2024-03-23T09:58:13;99232.63;;;12.35;100.00
54924;BME280;40825;52.270;20.984;2024-03-23T10:00:39;99225.67;;;12.73;100.00
54924;BME280;40825;52.270;20.984;2024-03-23T10:03:07;99224.27;;;13.08;100.00
54924;BME280;40825;52.270;20.984;2024-03-23T10:05:34;99218.05;;;13.22;100.00
54924;BME280;40825;52.270;20.984;2024-03-23T10:08:01;99214.05;;;13.31;100.00
54924;BME280;40825;52.270;20.984;2024-03-23T10:10:42;99198.95;;;13.48;100.00
54924;BME280;40825;52.270;20.984;2024-03-23T10:13:08;99187.05;;;13.46;100.00
54924;BME280;40825;52.270;20.984;2024-03-23T10:15:35;99182.45;;;13.55;100.00
54924;BME280;40825;52.270;20.984;2024-03-23T10:18:27;99170.06;;;13.71;100.00
54924;BME280;40825;52.270;20.984;2024-03-23T10:23:35;99161.61;;;13.76;100.00
54924;BME280;40825;52.270;20.984;2024-03-23T10:26:24;99148.95;;;13.96;100.00
54924;BME280;40825;52.270;20.984;2024-03-23T10:28:57;99141.73;;;14.12;100.00
54924;BME280;40825;52.270;20.984;2024-03-23T10:31:33;99132.68;;;13.91;100.00
54924;BME280;40825;52.270;20.984;2024-03-23T10:34:02;99123.33;;;13.97;100.00
54924;BME280;40825;52.270;20.984;2024-03-23T10:36:30;99119.34;;;14.23;100.00
54924;BME280;40825;52.270;20.984;2024-03-23T10:38:56;99117.27;;;14.40;100.00
54924;BME280;40825;52.270;20.984;2024-03-23T10:41:26;99114.33;;;14.48;100.00
54924;BME280;40825;52.270;20.984;2024-03-23T10:43:53;99109.73;;;14.82;100.00
54924;BME280;40825;52.270;20.984;2024-03-23T10:46:21;99104.90;;;14.90;100.00
54924;BME280;40825;52.270;20.984;2024-03-23T10:48:47;99100.37;;;14.66;100.00
54924;BME280;40825;52.270;20.984;2024-03-23T10:51:14;99095.70;;;14.74;100.00
54924;BME280;40825;52.270;20.984;2024-03-23T10:53:39;99099.88;;;14.58;100.00
54924;BME280;40825;52.270;20.984;2024-03-23T10:56:06;99091.38;;;14.57;100.00
54924;BME280;40825;52.270;20.984;2024-03-23T10:58:38;99082.15;;;14.55;100.00
54924;BME280;40825;52.270;20.984;2024-03-23T11:01:04;99070.88;;;14.63;100.00
54924;BME280;40825;52.270;20.984;2024-03-23T11:03:37;99062.18;;;14.68;100.00
54924;BME280;40825;52.270;20.984;2024-03-23T11:06:05;99053.36;;;14.71;100.00
54924;BME280;40825;52.270;20.984;2024-03-23T11:08:40;99052.05;;;14.89;100.00
54924;BME280;40825;52.270;20.984;2024-03-23T11:11:17;99050.53;;;15.02;99.59
54924;BME280;40825;52.270;20.984;2024-03-23T11:13:44;99050.31;;;15.20;100.00
54924;BME280;40825;52.270;20.984;2024-03-23T11:18:43;99048.14;;;15.35;100.00
54924;BME280;40825;52.270;20.984;2024-03-23T11:21:10;99050.05;;;15.41;98.14
54924;BME280;40825;52.270;20.984;2024-03-23T11:23:36;99047.02;;;15.44;99.52
54924;BME280;40825;52.270;20.984;2024-03-23T11:26:01;99041.42;;;15.58;99.89
54924;BME280;40825;52.270;20.984;2024-03-23T11:28:27;99039.69;;;15.79;100.00
54924;BME280;40825;52.270;20.984;2024-03-23T11:30:53;99033.77;;;15.80;98.68
54924;BME280;40825;52.270;20.984;2024-03-23T11:33:18;99028.70;;;15.60;97.78
54924;BME280;40825;52.270;20.984;2024-03-23T11:35:44;99029.93;;;15.53;97.68
54924;BME280;40825;52.270;20.984;2024-03-23T11:38:17;99024.55;;;15.51;98.51
54924;BME280;40825;52.270;20.984;2024-03-23T11:40:49;99020.02;;;15.64;99.22
54924;BME280;40825;52.270;20.984;2024-03-23T11:43:19;99014.73;;;15.81;96.62
54924;BME280;40825;52.270;20.984;2024-03-23T11:45:50;99010.61;;;15.68;91.09
54924;BME280;40825;52.270;20.984;2024-03-23T11:48:19;99005.26;;;15.55;91.23
54924;BME280;40825;52.270;20.984;2024-03-23T11:50:48;99004.30;;;15.35;86.12
54924;BME280;40825;52.270;20.984;2024-03-23T11:53:23;98992.35;;;15.19;88.57
54924;BME280;40825;52.270;20.984;2024-03-23T11:55:57;98981.81;;;15.26;94.72
54924;BME280;40825;52.270;20.984;2024-03-23T11:58:24;98977.54;;;15.30;90.20
54924;BME280;40825;52.270;20.984;2024-03-23T12:03:26;98972.19;;;15.48;84.73
54924;BME280;40825;52.270;20.984;2024-03-23T12:05:58;98965.73;;;15.50;92.96
54924;BME280;40825;52.270;20.984;2024-03-23T12:08:32;98964.59;;;15.48;88.94
54924;BME280;40825;52.270;20.984;2024-03-23T12:11:17;98962.79;;;15.43;84.93
54924;BME280;40825;52.270;20.984;2024-03-23T12:13:46;98954.88;;;15.41;92.45
54924;BME280;40825;52.270;20.984;2024-03-23T12:18:43;98945.13;;;15.49;92.82
54924;BME280;40825;52.270;20.984;2024-03-23T12:21:09;98940.79;;;15.90;94.81
54924;BME280;40825;52.270;20.984;2024-03-23T12:23:36;98940.81;;;16.04;88.15
54924;BME280;40825;52.270;20.984;2024-03-23T12:26:03;98939.00;;;15.99;85.06
54924;BME280;40825;52.270;20.984;2024-03-23T12:28:29;98933.67;;;15.97;85.74
54924;BME280;40825;52.270;20.984;2024-03-23T12:30:55;98925.84;;;15.91;86.19
54924;BME280;40825;52.270;20.984;2024-03-23T12:33:21;98922.09;;;15.88;90.32
54924;BME280;40825;52.270;20.984;2024-03-23T12:35:47;98921.48;;;15.85;86.52
54924;BME280;40825;52.270;20.984;2024-03-23T12:38:13;98916.09;;;15.85;87.74
54924;BME280;40825;52.270;20.984;2024-03-23T12:40:39;98910.09;;;15.77;87.77
54924;BME280;40825;52.270;20.984;2024-03-23T12:43:04;98906.34;;;15.69;92.07
54924;BME280;40825;52.270;20.984;2024-03-23T12:45:30;98903.88;;;15.59;89.67
54924;BME280;40825;52.270;20.984;2024-03-23T12:47:55;98905.17;;;15.51;91.00
54924;BME280;40825;52.270;20.984;2024-03-23T12:50:21;98899.89;;;15.40;86.79
54924;BME280;40825;52.270;20.984;2024-03-23T12:52:47;98891.83;;;15.29;88.92
54924;BME280;40825;52.270;20.984;2024-03-23T12:55:13;98888.23;;;15.21;86.48
54924;BME280;40825;52.270;20.984;2024-03-23T12:57:38;98882.91;;;15.15;89.85
54924;BME280;40825;52.270;20.984;2024-03-23T13:00:06;98880.24;;;15.10;88.26
54924;BME280;40825;52.270;20.984;2024-03-23T13:02:32;98874.27;;;15.07;90.87
54924;BME280;40825;52.270;20.984;2024-03-23T13:05:00;98869.90;;;15.06;84.94
54924;BME280;40825;52.270;20.984;2024-03-23T13:07:25;98861.29;;;15.01;83.78
54924;BME280;40825;52.270;20.984;2024-03-23T13:09:51;98852.75;;;15.04;87.62
54924;BME280;40825;52.270;20.984;2024-03-23T13:12:18;98848.55;;;15.02;83.85
54924;BME280;40825;52.270;20.984;2024-03-23T13:14:45;98842.65;;;14.97;82.11
54924;BME280;40825;52.270;20.984;2024-03-23T13:17:10;98833.80;;;15.00;87.63
54924;BME280;40825;52.270;20.984;2024-03-23T13:19:36;98831.28;;;15.00;84.20
54924;BME280;40825;52.270;20.984;2024-03-23T13:22:01;98831.05;;;14.98;85.84
54924;BME280;40825;52.270;20.984;2024-03-23T13:24:28;98829.96;;;14.97;91.72
54924;BME280;40825;52.270;20.984;2024-03-23T13:26:54;98827.70;;;14.95;90.49
54924;BME280;40825;52.270;20.984;2024-03-23T13:29:21;98821.77;;;14.91;90.73
54924;BME280;40825;52.270;20.984;2024-03-23T13:31:48;98810.52;;;14.89;93.63
54924;BME280;40825;52.270;20.984;2024-03-23T13:34:15;98801.92;;;14.90;96.42
54924;BME280;40825;52.270;20.984;2024-03-23T13:36:41;98793.27;;;14.91;97.09
54924;BME280;40825;52.270;20.984;2024-03-23T13:39:08;98784.01;;;14.94;97.00
54924;BME280;40825;52.270;20.984;2024-03-23T13:41:44;98779.73;;;14.98;95.88
54924;BME280;40825;52.270;20.984;2024-03-23T13:44:12;98774.33;;;15.03;96.14
54924;BME280;40825;52.270;20.984;2024-03-23T13:46:39;98770.15;;;15.07;94.28
54924;BME280;40825;52.270;20.984;2024-03-23T13:49:05;98767.21;;;15.11;93.67
54924;BME280;40825;52.270;20.984;2024-03-23T13:51:32;98766.31;;;15.13;92.94